sensor_id;sensor_type;location;lat;lon;timestamp;P1;durP1;ratioP1;P2;durP2;ratioP2
27303;SDS011;14791;52.392;13.092;2022-12-24T00:02:07;4.93;;;4.70;;
27303;SDS011;14791;52.392;13.092;2022-12-24T00:04:36;5.03;;;4.63;;
27303;SDS011;14791;52.392;13.092;2022-12-24T00:07:05;4.90;;;4.70;;
27303;SDS011;14791;52.392;13.092;2022-12-24T00:09:34;4.57;;;4.37;;
27303;SDS011;14791;52.392;13.092;2022-12-24T00:12:03;4.63;;;4.37;;
27303;SDS011;14791;52.392;13.092;2022-12-24T00:14:32;5.37;;;5.17;;
27303;SDS011;14791;52.392;13.092;2022-12-24T00:17:01;4.67;;;4.47;;
27303;SDS011;14791;52.392;13.092;2022-12-24T00:19:30;5.00;;;4.80;;
27303;SDS011;14791;52.392;13.092;2022-12-24T00:21:59;3.93;;;3.83;;
27303;SDS011;14791;52.392;13.092;2022-12-24T00:24:27;3.87;;;3.77;;
27303;SDS011;14791;52.392;13.092;2022-12-24T00:26:56;3.63;;;3.53;;
27303;SDS011;14791;52.392;13.092;2022-12-24T00:29:25;3.63;;;3.53;;
27303;SDS011;14791;52.392;13.092;2022-12-24T00:31:54;3.67;;;3.57;;
27303;SDS011;14791;52.392;13.092;2022-12-24T00:34:23;2.80;;;2.70;;
27303;SDS011;14791;52.392;13.092;2022-12-24T00:36:53;3.17;;;3.07;;
27303;SDS011;14791;52.392;13.092;2022-12-24T00:39:21;2.77;;;2.67;;
27303;SDS011;14791;52.392;13.092;2022-12-24T00:41:50;2.97;;;2.87;;
27303;SDS011;14791;52.392;13.092;2022-12-24T00:44:19;2.80;;;2.70;;
27303;SDS011;14791;52.392;13.092;2022-12-24T00:46:48;2.97;;;2.87;;
27303;SDS011;14791;52.392;13.092;2022-12-24T00:49:17;3.10;;;3.00;;
27303;SDS011;14791;52.392;13.092;2022-12-24T00:51:46;3.00;;;2.90;;
27303;SDS011;14791;52.392;13.092;2022-12-24T00:54:15;2.63;;;2.53;;
27303;SDS011;14791;52.392;13.092;2022-12-24T00:56:44;2.87;;;2.77;;
27303;SDS011;14791;52.392;13.092;2022-12-24T00:59:13;2.43;;;2.43;;
27303;SDS011;14791;52.392;13.092;2022-12-24T01:01:42;2.80;;;2.70;;
27303;SDS011;14791;52.392;13.092;2022-12-24T01:04:10;2.63;;;2.57;;
27303;SDS011;14791;52.392;13.092;2022-12-24T01:06:57;2.80;;;2.70;;
27303;SDS011;14791;52.392;13.092;2022-12-24T01:09:26;2.60;;;2.50;;
27303;SDS011;14791;52.392;13.092;2022-12-24T01:11:55;2.63;;;2.53;;
27303;SDS011;14791;52.392;13.092;2022-12-24T01:14:24;2.20;;;2.20;;
27303;SDS011;14791;52.392;13.092;2022-12-24T01:16:53;2.20;;;2.20;;
27303;SDS011;14791;52.392;13.092;2022-12-24T01:19:21;2.03;;;2.03;;
27303;SDS011;14791;52.392;13.092;2022-12-24T01:21:50;2.03;;;2.03;;
27303;SDS011;14791;52.392;13.092;2022-12-24T01:24:19;2.70;;;2.60;;
27303;SDS011;14791;52.392;13.092;2022-12-24T01:26:48;2.33;;;2.30;;
27303;SDS011;14791;52.392;13.092;2022-12-24T01:29:17;1.93;;;1.93;;
27303;SDS011;14791;52.392;13.092;2022-12-24T01:31:46;2.60;;;2.50;;
27303;SDS011;14791;52.392;13.092;2022-12-24T01:34:15;2.30;;;2.20;;
27303;SDS011;14791;52.392;13.092;2022-12-24T01:36:44;1.87;;;1.87;;
27303;SDS011;14791;52.392;13.092;2022-12-24T01:39:13;2.50;;;2.40;;
27303;SDS011;14791;52.392;13.092;2022-12-24T01:41:42;2.33;;;2.23;;
27303;SDS011;14791;52.392;13.092;2022-12-24T01:44:29;2.40;;;2.30;;
27303;SDS011;14791;52.392;13.092;2022-12-24T01:47:19;2.17;;;2.07;;
27303;SDS011;14791;52.392;13.092;2022-12-24T01:49:51;2.13;;;2.13;;
27303;SDS011;14791;52.392;13.092;2022-12-24T01:52:29;2.23;;;2.20;;
27303;SDS011;14791;52.392;13.092;2022-12-24T01:55:04;3.20;;;3.10;;
27303;SDS011;14791;52.392;13.092;2022-12-24T01:57:34;2.10;;;2.10;;
27303;SDS011;14791;52.392;13.092;2022-12-24T02:00:07;2.33;;;2.30;;
27303;SDS011;14791;52.392;13.092;2022-12-24T02:02:39;2.30;;;2.30;;
27303;SDS011;14791;52.392;13.092;2022-12-24T02:05:14;2.70;;;2.60;;
27303;SDS011;14791;52.392;13.092;2022-12-24T02:07:44;2.80;;;2.70;;
27303;SDS011;14791;52.392;13.092;2022-12-24T02:10:15;2.37;;;2.37;;
27303;SDS011;14791;52.392;13.092;2022-12-24T02:12:44;2.03;;;2.03;;
27303;SDS011;14791;52.392;13.092;2022-12-24T02:15:15;2.10;;;2.10;;
27303;SDS011;14791;52.392;13.092;2022-12-24T02:17:54;1.97;;;1.93;;
27303;SDS011;14791;52.392;13.092;2022-12-24T02:20:34;2.53;;;2.43;;
27303;SDS011;14791;52.392;13.092;2022-12-24T02:23:06;2.03;;;2.03;;
27303;SDS011;14791;52.392;13.092;2022-12-24T02:28:42;2.50;;;2.40;;
27303;SDS011;14791;52.392;13.092;2022-12-24T02:31:34;1.83;;;1.83;;
27303;SDS011;14791;52.392;13.092;2022-12-24T02:34:02;2.30;;;2.30;;
27303;SDS011;14791;52.392;13.092;2022-12-24T02:36:35;2.13;;;2.13;;
27303;SDS011;14791;52.392;13.092;2022-12-24T02:39:14;1.87;;;1.87;;
27303;SDS011;14791;52.392;13.092;2022-12-24T02:41:41;2.50;;;2.40;;
27303;SDS011;14791;52.392;13.092;2022-12-24T02:44:30;2.53;;;2.43;;
27303;SDS011;14791;52.392;13.092;2022-12-24T02:47:07;2.20;;;2.20;;
27303;SDS011;14791;52.392;13.092;2022-12-24T02:49:38;2.43;;;2.43;;
27303;SDS011;14791;52.392;13.092;2022-12-24T02:52:26;2.70;;;2.60;;
27303;SDS011;14791;52.392;13.092;2022-12-24T02:54:49;2.67;;;2.57;;
27303;SDS011;14791;52.392;13.092;2022-12-24T02:57:27;2.40;;;2.33;;
27303;SDS011;14791;52.392;13.092;2022-12-24T03:00:11;2.90;;;2.80;;
27303;SDS011;14791;52.392;13.092;2022-12-24T03:05:29;2.73;;;2.63;;
27303;SDS011;14791;52.392;13.092;2022-12-24T03:08:03;2.87;;;2.77;;
27303;SDS011;14791;52.392;13.092;2022-12-24T03:10:53;3.03;;;2.83;;
27303;SDS011;14791;52.392;13.092;2022-12-24T03:13:26;2.13;;;2.13;;
27303;SDS011;14791;52.392;13.092;2022-12-24T03:15:56;3.13;;;3.03;;
27303;SDS011;14791;52.392;13.092;2022-12-24T03:18:25;3.23;;;3.13;;
27303;SDS011;14791;52.392;13.092;2022-12-24T03:21:10;3.50;;;3.30;;
27303;SDS011;14791;52.392;13.092;2022-12-24T03:23:39;2.93;;;2.83;;
27303;SDS011;14791;52.392;13.092;2022-12-24T03:26:09;2.60;;;2.50;;
27303;SDS011;14791;52.392;13.092;2022-12-24T03:28:40;3.00;;;2.90;;
27303;SDS011;14791;52.392;13.092;2022-12-24T03:31:10;3.40;;;3.30;;
27303;SDS011;14791;52.392;13.092;2022-12-24T03:33:40;3.30;;;3.20;;
27303;SDS011;14791;52.392;13.092;2022-12-24T03:36:09;3.00;;;2.90;;
27303;SDS011;14791;52.392;13.092;2022-12-24T03:38:39;3.10;;;3.00;;
27303;SDS011;14791;52.392;13.092;2022-12-24T03:41:09;3.27;;;3.17;;
27303;SDS011;14791;52.392;13.092;2022-12-24T03:43:38;2.50;;;2.40;;
27303;SDS011;14791;52.392;13.092;2022-12-24T03:46:07;3.13;;;3.03;;
27303;SDS011;14791;52.392;13.092;2022-12-24T03:48:36;3.53;;;3.43;;
27303;SDS011;14791;52.392;13.092;2022-12-24T03:51:05;3.23;;;3.13;;
27303;SDS011;14791;52.392;13.092;2022-12-24T03:53:36;3.50;;;3.40;;
27303;SDS011;14791;52.392;13.092;2022-12-24T03:56:05;3.20;;;3.10;;
27303;SDS011;14791;52.392;13.092;2022-12-24T03:58:34;3.40;;;3.30;;
27303;SDS011;14791;52.392;13.092;2022-12-24T04:01:03;3.17;;;3.07;;
27303;SDS011;14791;52.392;13.092;2022-12-24T04:03:32;3.57;;;3.47;;
27303;SDS011;14791;52.392;13.092;2022-12-24T04:06:02;4.03;;;3.93;;
27303;SDS011;14791;52.392;13.092;2022-12-24T04:08:33;3.60;;;3.50;;
27303;SDS011;14791;52.392;13.092;2022-12-24T04:11:04;3.63;;;3.53;;
27303;SDS011;14791;52.392;13.092;2022-12-24T04:13:34;3.73;;;3.63;;
27303;SDS011;14791;52.392;13.092;2022-12-24T04:16:06;3.33;;;3.23;;
27303;SDS011;14791;52.392;13.092;2022-12-24T04:18:37;2.80;;;2.70;;
27303;SDS011;14791;52.392;13.092;2022-12-24T04:21:07;2.30;;;2.30;;
27303;SDS011;14791;52.392;13.092;2022-12-24T04:23:37;3.70;;;3.60;;
27303;SDS011;14791;52.392;13.092;2022-12-24T04:26:08;4.23;;;4.10;;
27303;SDS011;14791;52.392;13.092;2022-12-24T04:28:39;3.37;;;3.27;;
27303;SDS011;14791;52.392;13.092;2022-12-24T04:31:11;3.70;;;3.60;;
27303;SDS011;14791;52.392;13.092;2022-12-24T04:33:41;4.20;;;4.10;;
27303;SDS011;14791;52.392;13.092;2022-12-24T04:36:16;3.90;;;3.80;;
27303;SDS011;14791;52.392;13.092;2022-12-24T04:38:43;4.10;;;4.00;;
27303;SDS011;14791;52.392;13.092;2022-12-24T04:41:17;4.37;;;4.27;;
27303;SDS011;14791;52.392;13.092;2022-12-24T04:43:47;3.90;;;3.80;;
27303;SDS011;14791;52.392;13.092;2022-12-24T04:46:18;3.83;;;3.73;;
27303;SDS011;14791;52.392;13.092;2022-12-24T04:48:51;4.27;;;4.17;;
27303;SDS011;14791;52.392;13.092;2022-12-24T04:51:21;4.77;;;4.57;;
27303;SDS011;14791;52.392;13.092;2022-12-24T04:53:51;4.30;;;4.20;;
27303;SDS011;14791;52.392;13.092;2022-12-24T04:56:28;4.13;;;3.93;;
27303;SDS011;14791;52.392;13.092;2022-12-24T04:58:53;3.60;;;3.50;;
27303;SDS011;14791;52.392;13.092;2022-12-24T05:01:23;3.60;;;3.50;;
27303;SDS011;14791;52.392;13.092;2022-12-24T05:03:54;4.20;;;4.00;;
27303;SDS011;14791;52.392;13.092;2022-12-24T05:06:25;4.10;;;4.00;;
27303;SDS011;14791;52.392;13.092;2022-12-24T05:08:56;3.93;;;3.83;;
27303;SDS011;14791;52.392;13.092;2022-12-24T05:11:25;5.60;;;5.40;;
27303;SDS011;14791;52.392;13.092;2022-12-24T05:13:55;5.67;;;5.47;;
27303;SDS011;14791;52.392;13.092;2022-12-24T05:16:24;5.57;;;5.37;;
27303;SDS011;14791;52.392;13.092;2022-12-24T05:18:53;5.10;;;4.90;;
27303;SDS011;14791;52.392;13.092;2022-12-24T05:21:22;4.83;;;4.57;;
27303;SDS011;14791;52.392;13.092;2022-12-24T05:23:52;4.63;;;4.43;;
27303;SDS011;14791;52.392;13.092;2022-12-24T05:26:42;5.17;;;4.87;;
27303;SDS011;14791;52.392;13.092;2022-12-24T05:29:18;5.00;;;4.80;;
27303;SDS011;14791;52.392;13.092;2022-12-24T05:31:47;4.57;;;4.37;;
27303;SDS011;14791;52.392;13.092;2022-12-24T05:34:16;5.73;;;5.53;;
27303;SDS011;14791;52.392;13.092;2022-12-24T05:36:45;4.73;;;4.60;;
27303;SDS011;14791;52.392;13.092;2022-12-24T05:39:14;5.53;;;5.23;;
27303;SDS011;14791;52.392;13.092;2022-12-24T05:41:44;5.10;;;4.90;;
27303;SDS011;14791;52.392;13.092;2022-12-24T05:44:13;5.90;;;5.53;;
27303;SDS011;14791;52.392;13.092;2022-12-24T05:46:43;5.93;;;5.73;;
27303;SDS011;14791;52.392;13.092;2022-12-24T05:49:12;5.17;;;4.97;;
27303;SDS011;14791;52.392;13.092;2022-12-24T05:51:41;5.43;;;5.23;;
27303;SDS011;14791;52.392;13.092;2022-12-24T05:54:10;6.00;;;5.73;;
27303;SDS011;14791;52.392;13.092;2022-12-24T05:56:39;4.57;;;4.37;;
27303;SDS011;14791;52.392;13.092;2022-12-24T05:59:08;4.37;;;4.17;;
27303;SDS011;14791;52.392;13.092;2022-12-24T06:01:37;5.53;;;5.33;;
27303;SDS011;14791;52.392;13.092;2022-12-24T06:04:06;5.40;;;5.20;;
27303;SDS011;14791;52.392;13.092;2022-12-24T06:06:35;5.13;;;4.93;;
27303;SDS011;14791;52.392;13.092;2022-12-24T06:09:04;6.60;;;6.30;;
27303;SDS011;14791;52.392;13.092;2022-12-24T06:11:33;6.10;;;5.80;;
27303;SDS011;14791;52.392;13.092;2022-12-24T06:14:03;6.60;;;6.30;;
27303;SDS011;14791;52.392;13.092;2022-12-24T06:16:31;5.90;;;5.70;;
27303;SDS011;14791;52.392;13.092;2022-12-24T06:19:00;5.20;;;4.90;;
27303;SDS011;14791;52.392;13.092;2022-12-24T06:21:29;5.83;;;5.63;;
27303;SDS011;14791;52.392;13.092;2022-12-24T06:23:59;6.63;;;6.33;;
27303;SDS011;14791;52.392;13.092;2022-12-24T06:26:27;6.70;;;6.40;;
27303;SDS011;14791;52.392;13.092;2022-12-24T06:28:56;5.90;;;5.70;;
27303;SDS011;14791;52.392;13.092;2022-12-24T06:31:25;6.70;;;6.40;;
27303;SDS011;14791;52.392;13.092;2022-12-24T06:33:54;6.07;;;5.77;;
27303;SDS011;14791;52.392;13.092;2022-12-24T06:36:24;6.70;;;6.40;;
27303;SDS011;14791;52.392;13.092;2022-12-24T06:38:53;6.53;;;6.23;;
27303;SDS011;14791;52.392;13.092;2022-12-24T06:41:22;4.87;;;4.73;;
27303;SDS011;14791;52.392;13.092;2022-12-24T06:43:51;5.37;;;5.13;;
27303;SDS011;14791;52.392;13.092;2022-12-24T06:46:21;5.40;;;5.20;;
27303;SDS011;14791;52.392;13.092;2022-12-24T06:48:50;5.10;;;4.90;;
27303;SDS011;14791;52.392;13.092;2022-12-24T06:51:21;5.57;;;5.37;;
27303;SDS011;14791;52.392;13.092;2022-12-24T06:53:50;6.50;;;6.20;;
27303;SDS011;14791;52.392;13.092;2022-12-24T06:56:19;5.17;;;4.97;;
27303;SDS011;14791;52.392;13.092;2022-12-24T06:58:48;5.30;;;5.10;;
27303;SDS011;14791;52.392;13.092;2022-12-24T07:01:18;5.33;;;5.13;;
27303;SDS011;14791;52.392;13.092;2022-12-24T07:03:47;6.27;;;5.97;;
27303;SDS011;14791;52.392;13.092;2022-12-24T07:06:24;5.67;;;5.47;;
27303;SDS011;14791;52.392;13.092;2022-12-24T07:08:55;7.10;;;6.70;;
27303;SDS011;14791;52.392;13.092;2022-12-24T07:11:24;5.87;;;5.63;;
27303;SDS011;14791;52.392;13.092;2022-12-24T07:13:53;6.37;;;6.07;;
27303;SDS011;14791;52.392;13.092;2022-12-24T07:16:22;5.40;;;5.20;;
27303;SDS011;14791;52.392;13.092;2022-12-24T07:18:51;6.83;;;6.53;;
27303;SDS011;14791;52.392;13.092;2022-12-24T07:21:20;6.87;;;6.57;;
27303;SDS011;14791;52.392;13.092;2022-12-24T07:23:49;6.17;;;5.87;;
27303;SDS011;14791;52.392;13.092;2022-12-24T07:26:18;5.33;;;5.13;;
27303;SDS011;14791;52.392;13.092;2022-12-24T07:28:47;6.37;;;6.07;;
27303;SDS011;14791;52.392;13.092;2022-12-24T07:31:15;6.83;;;6.53;;
27303;SDS011;14791;52.392;13.092;2022-12-24T07:33:44;5.63;;;5.43;;
27303;SDS011;14791;52.392;13.092;2022-12-24T07:36:14;6.70;;;6.40;;
27303;SDS011;14791;52.392;13.092;2022-12-24T07:38:45;7.10;;;6.80;;
27303;SDS011;14791;52.392;13.092;2022-12-24T07:41:15;7.23;;;6.83;;
27303;SDS011;14791;52.392;13.092;2022-12-24T07:43:44;5.17;;;4.97;;
27303;SDS011;14791;52.392;13.092;2022-12-24T07:46:13;6.00;;;5.80;;
27303;SDS011;14791;52.392;13.092;2022-12-24T07:48:42;6.50;;;6.20;;
27303;SDS011;14791;52.392;13.092;2022-12-24T07:51:11;6.97;;;6.67;;
27303;SDS011;14791;52.392;13.092;2022-12-24T07:53:39;7.43;;;7.03;;
27303;SDS011;14791;52.392;13.092;2022-12-24T07:56:10;6.83;;;6.43;;
27303;SDS011;14791;52.392;13.092;2022-12-24T07:58:39;6.07;;;5.77;;
27303;SDS011;14791;52.392;13.092;2022-12-24T08:01:08;6.27;;;5.97;;
27303;SDS011;14791;52.392;13.092;2022-12-24T08:03:37;7.33;;;6.93;;
27303;SDS011;14791;52.392;13.092;2022-12-24T08:06:07;6.30;;;6.00;;
27303;SDS011;14791;52.392;13.092;2022-12-24T08:08:36;6.07;;;5.77;;
27303;SDS011;14791;52.392;13.092;2022-12-24T08:11:05;5.27;;;5.07;;
27303;SDS011;14791;52.392;13.092;2022-12-24T08:13:34;6.27;;;5.97;;
27303;SDS011;14791;52.392;13.092;2022-12-24T08:16:04;6.40;;;6.20;;
27303;SDS011;14791;52.392;13.092;2022-12-24T08:18:33;5.33;;;5.13;;
27303;SDS011;14791;52.392;13.092;2022-12-24T08:21:02;6.27;;;5.97;;
27303;SDS011;14791;52.392;13.092;2022-12-24T08:23:36;5.63;;;5.43;;
27303;SDS011;14791;52.392;13.092;2022-12-24T08:26:08;7.23;;;6.83;;
27303;SDS011;14791;52.392;13.092;2022-12-24T08:28:37;7.17;;;6.77;;
27303;SDS011;14791;52.392;13.092;2022-12-24T08:31:06;6.80;;;6.50;;
27303;SDS011;14791;52.392;13.092;2022-12-24T08:33:36;7.50;;;7.17;;
27303;SDS011;14791;52.392;13.092;2022-12-24T08:36:04;5.47;;;5.27;;
27303;SDS011;14791;52.392;13.092;2022-12-24T08:38:34;5.87;;;5.57;;
27303;SDS011;14791;52.392;13.092;2022-12-24T08:41:03;5.50;;;5.30;;
27303;SDS011;14791;52.392;13.092;2022-12-24T08:43:32;6.40;;;6.13;;
27303;SDS011;14791;52.392;13.092;2022-12-24T08:46:04;6.03;;;5.73;;
27303;SDS011;14791;52.392;13.092;2022-12-24T08:48:33;5.47;;;5.27;;
27303;SDS011;14791;52.392;13.092;2022-12-24T08:51:07;5.30;;;5.10;;
27303;SDS011;14791;52.392;13.092;2022-12-24T08:53:37;5.30;;;5.10;;
27303;SDS011;14791;52.392;13.092;2022-12-24T08:56:07;5.13;;;4.93;;
27303;SDS011;14791;52.392;13.092;2022-12-24T08:58:36;4.63;;;4.43;;
27303;SDS011;14791;52.392;13.092;2022-12-24T09:01:14;4.47;;;4.37;;
27303;SDS011;14791;52.392;13.092;2022-12-24T09:03:40;4.23;;;4.13;;
27303;SDS011;14791;52.392;13.092;2022-12-24T09:06:09;4.10;;;4.00;;
27303;SDS011;14791;52.392;13.092;2022-12-24T09:08:38;3.87;;;3.77;;
27303;SDS011;14791;52.392;13.092;2022-12-24T09:11:09;4.10;;;3.90;;
27303;SDS011;14791;52.392;13.092;2022-12-24T09:13:39;3.30;;;3.20;;
27303;SDS011;14791;52.392;13.092;2022-12-24T09:16:10;3.47;;;3.37;;
27303;SDS011;14791;52.392;13.092;2022-12-24T09:18:39;3.57;;;3.40;;
27303;SDS011;14791;52.392;13.092;2022-12-24T09:21:10;3.40;;;3.30;;
27303;SDS011;14791;52.392;13.092;2022-12-24T09:23:44;3.30;;;3.20;;
27303;SDS011;14791;52.392;13.092;2022-12-24T09:26:15;3.70;;;3.50;;
27303;SDS011;14791;52.392;13.092;2022-12-24T09:28:46;3.70;;;3.50;;
27303;SDS011;14791;52.392;13.092;2022-12-24T09:31:16;3.23;;;3.13;;
27303;SDS011;14791;52.392;13.092;2022-12-24T09:33:47;3.10;;;3.00;;
27303;SDS011;14791;52.392;13.092;2022-12-24T09:36:17;4.87;;;3.07;;
27303;SDS011;14791;52.392;13.092;2022-12-24T09:38:46;3.10;;;3.00;;
27303;SDS011;14791;52.392;13.092;2022-12-24T09:41:23;3.60;;;3.50;;
27303;SDS011;14791;52.392;13.092;2022-12-24T09:44:19;3.20;;;3.10;;
27303;SDS011;14791;52.392;13.092;2022-12-24T09:46:49;3.00;;;2.90;;
27303;SDS011;14791;52.392;13.092;2022-12-24T09:49:22;3.63;;;3.53;;
27303;SDS011;14791;52.392;13.092;2022-12-24T09:51:56;3.40;;;3.30;;
27303;SDS011;14791;52.392;13.092;2022-12-24T09:54:30;3.40;;;3.30;;
27303;SDS011;14791;52.392;13.092;2022-12-24T09:57:04;3.07;;;2.97;;
27303;SDS011;14791;52.392;13.092;2022-12-24T09:59:44;2.90;;;2.80;;
27303;SDS011;14791;52.392;13.092;2022-12-24T10:02:12;3.27;;;3.17;;
27303;SDS011;14791;52.392;13.092;2022-12-24T10:04:43;2.97;;;2.87;;
27303;SDS011;14791;52.392;13.092;2022-12-24T10:09:58;3.70;;;3.33;;
27303;SDS011;14791;52.392;13.092;2022-12-24T10:15:27;2.80;;;2.70;;
27303;SDS011;14791;52.392;13.092;2022-12-24T10:20:53;2.33;;;2.33;;
27303;SDS011;14791;52.392;13.092;2022-12-24T10:26:47;2.10;;;2.10;;
27303;SDS011;14791;52.392;13.092;2022-12-24T10:29:18;2.40;;;2.40;;
27303;SDS011;14791;52.392;13.092;2022-12-24T10:32:00;2.00;;;2.00;;
27303;SDS011;14791;52.392;13.092;2022-12-24T10:34:44;2.33;;;2.23;;
27303;SDS011;14791;52.392;13.092;2022-12-24T10:37:18;2.03;;;2.03;;
27303;SDS011;14791;52.392;13.092;2022-12-24T10:39:46;1.80;;;1.80;;
27303;SDS011;14791;52.392;13.092;2022-12-24T10:42:15;1.90;;;1.90;;
27303;SDS011;14791;52.392;13.092;2022-12-24T10:44:46;1.70;;;1.70;;
27303;SDS011;14791;52.392;13.092;2022-12-24T10:47:20;2.00;;;2.00;;
27303;SDS011;14791;52.392;13.092;2022-12-24T10:50:11;1.90;;;1.90;;
27303;SDS011;14791;52.392;13.092;2022-12-24T10:52:34;1.73;;;1.73;;
27303;SDS011;14791;52.392;13.092;2022-12-24T10:55:39;1.87;;;1.87;;
27303;SDS011;14791;52.392;13.092;2022-12-24T10:57:46;1.90;;;1.90;;
27303;SDS011;14791;52.392;13.092;2022-12-24T11:00:30;1.80;;;1.80;;
27303;SDS011;14791;52.392;13.092;2022-12-24T11:05:49;2.10;;;2.00;;
27303;SDS011;14791;52.392;13.092;2022-12-24T11:08:18;2.57;;;2.50;;
27303;SDS011;14791;52.392;13.092;2022-12-24T11:11:04;2.17;;;2.07;;
27303;SDS011;14791;52.392;13.092;2022-12-24T11:13:32;2.20;;;2.20;;
27303;SDS011;14791;52.392;13.092;2022-12-24T11:16:15;2.30;;;2.30;;
27303;SDS011;14791;52.392;13.092;2022-12-24T11:18:50;2.50;;;2.40;;
27303;SDS011;14791;52.392;13.092;2022-12-24T11:21:25;1.90;;;1.83;;
27303;SDS011;14791;52.392;13.092;2022-12-24T11:23:57;2.00;;;1.90;;
27303;SDS011;14791;52.392;13.092;2022-12-24T11:26:29;2.60;;;2.40;;
27303;SDS011;14791;52.392;13.092;2022-12-24T11:31:45;2.73;;;2.53;;
27303;SDS011;14791;52.392;13.092;2022-12-24T11:34:28;2.73;;;2.63;;
27303;SDS011;14791;52.392;13.092;2022-12-24T11:37:15;2.90;;;2.60;;
27303;SDS011;14791;52.392;13.092;2022-12-24T11:39:53;2.63;;;2.53;;
27303;SDS011;14791;52.392;13.092;2022-12-24T11:45:16;2.80;;;2.60;;
27303;SDS011;14791;52.392;13.092;2022-12-24T11:47:37;2.60;;;2.50;;
27303;SDS011;14791;52.392;13.092;2022-12-24T12:09:38;4.37;;;2.83;;
27303;SDS011;14791;52.392;13.092;2022-12-24T12:12:09;6.73;;;3.00;;
27303;SDS011;14791;52.392;13.092;2022-12-24T12:14:45;3.20;;;2.90;;
27303;SDS011;14791;52.392;13.092;2022-12-24T12:25:56;5.43;;;2.47;;
27303;SDS011;14791;52.392;13.092;2022-12-24T12:36:57;5.67;;;2.87;;
27303;SDS011;14791;52.392;13.092;2022-12-24T12:39:10;5.00;;;2.50;;
27303;SDS011;14791;52.392;13.092;2022-12-24T12:42:00;5.37;;;2.90;;
27303;SDS011;14791;52.392;13.092;2022-12-24T12:47:24;3.93;;;2.40;;
27303;SDS011;14791;52.392;13.092;2022-12-24T12:53:23;3.20;;;2.40;;
27303;SDS011;14791;52.392;13.092;2022-12-24T12:58:51;4.27;;;2.47;;
27303;SDS011;14791;52.392;13.092;2022-12-24T13:01:26;3.77;;;2.70;;
27303;SDS011;14791;52.392;13.092;2022-12-24T13:07:27;5.20;;;3.20;;
27303;SDS011;14791;52.392;13.092;2022-12-24T13:10:00;4.90;;;2.50;;
27303;SDS011;14791;52.392;13.092;2022-12-24T13:18:24;6.07;;;3.10;;
27303;SDS011;14791;52.392;13.092;2022-12-24T13:20:49;4.73;;;3.13;;
27303;SDS011;14791;52.392;13.092;2022-12-24T13:23:23;6.10;;;3.27;;
27303;SDS011;14791;52.392;13.092;2022-12-24T13:25:53;6.93;;;3.27;;
27303;SDS011;14791;52.392;13.092;2022-12-24T13:33:48;4.53;;;3.57;;
27303;SDS011;14791;52.392;13.092;2022-12-24T13:36:19;3.77;;;3.27;;
27303;SDS011;14791;52.392;13.092;2022-12-24T13:38:49;4.60;;;3.30;;
27303;SDS011;14791;52.392;13.092;2022-12-24T13:49:39;6.97;;;2.73;;
27303;SDS011;14791;52.392;13.092;2022-12-24T13:57:40;6.60;;;3.13;;
27303;SDS011;14791;52.392;13.092;2022-12-24T14:05:36;6.20;;;2.87;;
27303;SDS011;14791;52.392;13.092;2022-12-24T14:08:11;6.90;;;3.10;;
27303;SDS011;14791;52.392;13.092;2022-12-24T14:16:18;5.93;;;3.23;;
27303;SDS011;14791;52.392;13.092;2022-12-24T14:24:41;5.17;;;3.03;;
27303;SDS011;14791;52.392;13.092;2022-12-24T14:29:48;6.33;;;3.80;;
27303;SDS011;14791;52.392;13.092;2022-12-24T14:32:38;8.93;;;3.20;;
27303;SDS011;14791;52.392;13.092;2022-12-24T14:37:46;5.57;;;2.67;;
27303;SDS011;14791;52.392;13.092;2022-12-24T14:40:21;5.17;;;2.40;;
27303;SDS011;14791;52.392;13.092;2022-12-24T14:45:48;9.47;;;3.47;;
27303;SDS011;14791;52.392;13.092;2022-12-24T14:48:25;4.40;;;2.83;;
27303;SDS011;14791;52.392;13.092;2022-12-24T14:51:29;4.33;;;3.03;;
27303;SDS011;14791;52.392;13.092;2022-12-24T14:59:57;4.07;;;3.13;;
27303;SDS011;14791;52.392;13.092;2022-12-24T15:02:49;7.67;;;3.93;;
27303;SDS011;14791;52.392;13.092;2022-12-24T15:08:01;6.70;;;3.27;;
27303;SDS011;14791;52.392;13.092;2022-12-24T15:10:39;7.40;;;3.73;;
27303;SDS011;14791;52.392;13.092;2022-12-24T15:16:00;7.03;;;4.97;;
27303;SDS011;14791;52.392;13.092;2022-12-24T15:18:32;7.70;;;4.13;;
27303;SDS011;14791;52.392;13.092;2022-12-24T15:21:04;5.70;;;3.60;;
27303;SDS011;14791;52.392;13.092;2022-12-24T15:23:35;7.07;;;3.83;;
27303;SDS011;14791;52.392;13.092;2022-12-24T15:26:08;9.23;;;3.90;;
27303;SDS011;14791;52.392;13.092;2022-12-24T15:28:53;5.90;;;3.50;;
27303;SDS011;14791;52.392;13.092;2022-12-24T15:31:24;11.37;;;4.43;;
27303;SDS011;14791;52.392;13.092;2022-12-24T15:33:55;5.67;;;3.93;;
27303;SDS011;14791;52.392;13.092;2022-12-24T15:36:33;8.13;;;4.43;;
27303;SDS011;14791;52.392;13.092;2022-12-24T15:39:12;6.70;;;4.40;;
27303;SDS011;14791;52.392;13.092;2022-12-24T15:41:37;10.07;;;4.77;;
27303;SDS011;14791;52.392;13.092;2022-12-24T15:44:11;7.67;;;4.40;;
27303;SDS011;14791;52.392;13.092;2022-12-24T15:46:40;8.40;;;4.20;;
27303;SDS011;14791;52.392;13.092;2022-12-24T15:49:12;4.00;;;3.67;;
27303;SDS011;14791;52.392;13.092;2022-12-24T15:51:41;9.27;;;3.73;;
27303;SDS011;14791;52.392;13.092;2022-12-24T15:54:11;9.70;;;3.60;;
27303;SDS011;14791;52.392;13.092;2022-12-24T15:56:43;5.60;;;3.77;;
27303;SDS011;14791;52.392;13.092;2022-12-24T16:01:47;5.40;;;3.37;;
27303;SDS011;14791;52.392;13.092;2022-12-24T16:04:26;5.30;;;4.20;;
27303;SDS011;14791;52.392;13.092;2022-12-24T16:06:56;4.17;;;3.30;;
27303;SDS011;14791;52.392;13.092;2022-12-24T16:09:43;6.80;;;3.70;;
27303;SDS011;14791;52.392;13.092;2022-12-24T16:12:16;5.80;;;3.77;;
27303;SDS011;14791;52.392;13.092;2022-12-24T16:14:56;3.93;;;3.63;;
27303;SDS011;14791;52.392;13.092;2022-12-24T16:17:26;4.40;;;3.93;;
27303;SDS011;14791;52.392;13.092;2022-12-24T16:20:01;5.07;;;3.37;;
27303;SDS011;14791;52.392;13.092;2022-12-24T16:22:29;4.93;;;3.60;;
27303;SDS011;14791;52.392;13.092;2022-12-24T16:25:14;4.10;;;3.70;;
27303;SDS011;14791;52.392;13.092;2022-12-24T16:27:49;3.90;;;3.27;;
27303;SDS011;14791;52.392;13.092;2022-12-24T16:30:19;4.07;;;3.67;;
27303;SDS011;14791;52.392;13.092;2022-12-24T16:32:49;4.00;;;3.63;;
27303;SDS011;14791;52.392;13.092;2022-12-24T16:37:55;3.67;;;3.43;;
27303;SDS011;14791;52.392;13.092;2022-12-24T16:40:24;7.47;;;3.57;;
27303;SDS011;14791;52.392;13.092;2022-12-24T16:42:53;3.37;;;3.17;;
27303;SDS011;14791;52.392;13.092;2022-12-24T16:45:41;4.13;;;3.20;;
27303;SDS011;14791;52.392;13.092;2022-12-24T16:48:15;6.00;;;3.87;;
27303;SDS011;14791;52.392;13.092;2022-12-24T16:50:45;4.73;;;3.80;;
27303;SDS011;14791;52.392;13.092;2022-12-24T16:53:15;4.17;;;3.20;;
27303;SDS011;14791;52.392;13.092;2022-12-24T16:55:45;3.43;;;3.03;;
27303;SDS011;14791;52.392;13.092;2022-12-24T16:58:16;5.77;;;3.43;;
27303;SDS011;14791;52.392;13.092;2022-12-24T17:00:46;4.43;;;3.40;;
27303;SDS011;14791;52.392;13.092;2022-12-24T17:03:15;5.20;;;3.60;;
27303;SDS011;14791;52.392;13.092;2022-12-24T17:05:44;4.40;;;2.87;;
27303;SDS011;14791;52.392;13.092;2022-12-24T17:08:13;4.43;;;3.70;;
27303;SDS011;14791;52.392;13.092;2022-12-24T17:10:48;4.73;;;3.43;;
27303;SDS011;14791;52.392;13.092;2022-12-24T17:13:18;3.57;;;3.30;;
27303;SDS011;14791;52.392;13.092;2022-12-24T17:15:47;3.80;;;3.07;;
27303;SDS011;14791;52.392;13.092;2022-12-24T17:18:16;6.67;;;3.83;;
27303;SDS011;14791;52.392;13.092;2022-12-24T17:20:45;3.93;;;3.73;;
27303;SDS011;14791;52.392;13.092;2022-12-24T17:23:17;3.80;;;3.37;;